Time;durP1;ratioP1;P1;durP2;ratioP2;P2;SDS_P1;SDS_P2;PMS_P1;PMS_P2;Temp;Humidity;BMP_temperature;BMP_pressure;BME280_temperature;BME280_humidity;BME280_pressure;Samples;Min_cycle;Max_cycle;Signal;HPM_P1;HPM_P2
2023/06/07 00:01:42;;;;;;;13.90;9.65;;;15.10;99.90;;;14.53;100.00;101183.94;4119452;28;20027;-79
2023/06/07 00:03:44;;;;;;;17.30;9.38;;;15.10;99.90;;;14.40;100.00;101165.88;4129832;28;20126;-79
2023/06/07 00:05:46;;;;;;;14.48;9.15;;;15.00;99.90;;;14.38;100.00;101173.19;4121411;28;20031;-80
2023/06/07 00:07:47;;;;;;;15.90;9.57;;;15.00;99.90;;;14.23;100.00;101160.75;4125988;28;20023;-80
2023/06/07 00:09:48;;;;;;;16.63;9.20;;;14.90;99.90;;;14.30;100.00;101167.88;4138493;28;20042;-79
2023/06/07 00:11:49;;;;;;;19.90;10.13;;;14.90;99.90;;;14.31;100.00;101169.53;4137258;28;20513;-79
2023/06/07 00:13:50;;;;;;;17.02;10.43;;;14.90;99.90;;;14.20;100.00;101156.63;4153425;28;20091;-79
2023/06/07 00:15:51;;;;;;;15.68;9.50;;;14.80;99.90;;;14.31;100.00;101172.19;4138204;28;20055;-79
2023/06/07 00:17:52;;;;;;;12.40;9.77;;;14.80;99.90;;;14.29;100.00;101173.34;4136803;28;20035;-79
2023/06/07 00:19:55;;;;;;;13.50;9.68;;;14.80;99.90;;;14.18;100.00;101163.09;4127657;28;20026;-79
2023/06/07 00:21:57;;;;;;;15.48;9.77;;;14.80;99.90;;;14.28;100.00;101174.34;4121969;28;20486;-80
2023/06/07 00:23:58;;;;;;;18.67;11.82;;;14.80;99.90;;;14.16;100.00;101160.59;4120976;28;20062;-79
2023/06/07 00:25:59;;;;;;;16.30;10.40;;;14.70;99.90;;;14.10;100.00;101147.16;4122321;28;20081;-79
2023/06/07 00:28:00;;;;;;;18.98;11.30;;;14.80;99.90;;;14.21;100.00;101168.06;4132091;28;20072;-80
2023/06/07 00:30:03;;;;;;;17.25;12.43;;;14.70;99.90;;;14.13;100.00;101160.94;4123283;28;20026;-80
2023/06/07 00:32:05;;;;;;;19.73;11.48;;;14.70;99.90;;;14.23;100.00;101169.56;4121029;28;20031;-80
2023/06/07 00:34:05;;;;;;;17.77;11.10;;;14.70;99.90;;;14.20;100.00;101167.22;4121801;28;20039;-80
2023/06/07 00:36:07;;;;;;;16.90;12.40;;;14.70;99.90;;;14.07;100.00;101142.22;4121959;28;20065;-80
2023/06/07 00:38:08;;;;;;;21.73;12.63;;;14.70;99.90;;;14.17;100.00;101164.91;4128710;28;20054;-80
2023/06/07 00:40:10;;;;;;;17.67;11.85;;;14.70;99.90;;;14.16;100.00;101173.88;4120584;28;20014;-80
2023/06/07 00:42:11;;;;;;;24.50;12.98;;;14.60;99.90;;;14.15;100.00;101166.91;4136850;28;20027;-80
2023/06/07 00:44:12;;;;;;;20.27;11.57;;;14.70;99.90;;;14.13;100.00;101163.59;4120542;28;20108;-79
2023/06/07 00:46:17;;;;;;;20.92;12.95;;;14.60;99.90;;;14.02;100.00;101144.53;4121921;28;20034;-80
2023/06/07 00:48:18;;;;;;;21.48;13.23;;;14.60;99.90;;;14.08;100.00;101149.19;4128998;28;20038;-79
2023/06/07 00:50:20;;;;;;;19.27;12.15;;;14.60;99.90;;;14.00;100.00;101139.44;4136832;28;20096;-80
2023/06/07 00:52:22;;;;;;;17.65;11.27;;;14.60;99.90;;;13.94;100.00;101123.34;4136565;28;20082;-79
2023/06/07 00:54:23;;;;;;;20.38;12.90;;;14.60;99.90;;;14.06;100.00;101149.38;4136690;28;20150;-79
2023/06/07 00:56:24;;;;;;;25.63;13.18;;;14.60;99.90;;;14.00;100.00;101147.38;4137947;28;20030;-79
2023/06/07 00:58:26;;;;;;;21.35;12.68;;;14.50;99.90;;;13.82;100.00;101118.41;4136491;28;20050;-80
2023/06/07 01:00:29;;;;;;;22.35;12.40;;;14.50;99.90;;;13.81;100.00;101122.03;4136578;28;20021;-79
2023/06/07 01:02:30;;;;;;;18.55;12.07;;;14.50;99.90;;;13.94;100.00;101139.25;4136402;28;20026;-79
2023/06/07 01:04:34;;;;;;;18.33;11.93;;;14.50;99.90;;;13.82;100.00;101123.72;4125820;28;20033;-80
2023/06/07 01:06:37;;;;;;;19.95;12.45;;;14.40;99.90;;;13.82;100.00;101130.81;4136543;28;20057;-80
2023/06/07 01:08:38;;;;;;;20.02;12.10;;;14.40;99.90;;;13.86;100.00;101140.91;4137582;28;20034;-80
2023/06/07 01:10:39;;;;;;;17.20;12.55;;;14.40;99.90;;;13.88;100.00;101146.06;4137389;28;20030;-80
2023/06/07 01:12:43;;;;;;;18.00;12.15;;;14.40;99.90;;;13.68;100.00;101111.09;4120211;28;20034;-80
2023/06/07 01:14:47;;;;;;;20.35;12.63;;;14.40;99.90;;;13.80;100.00;101130.97;4136245;28;20030;-79
2023/06/07 01:16:52;;;;;;;18.27;12.35;;;14.40;99.90;;;13.78;100.00;101124.19;4136256;28;20069;-80
2023/06/07 01:18:53;;;;;;;17.08;12.80;;;14.40;99.90;;;13.74;100.00;101120.22;4135882;28;20046;-80
2023/06/07 01:20:57;;;;;;;19.55;12.60;;;14.40;99.90;;;13.76;100.00;101120.88;4137531;28;20094;-80
2023/06/07 01:23:00;;;;;;;22.10;11.80;;;14.30;99.90;;;13.66;100.00;101109.63;4136146;28;20026;-80
2023/06/07 01:25:02;;;;;;;22.95;12.32;;;14.30;99.90;;;13.78;100.00;101134.78;4136290;28;20030;-80
2023/06/07 01:27:07;;;;;;;18.85;12.10;;;14.30;99.90;;;13.76;100.00;101131.50;4136135;28;20034;-80
2023/06/07 01:29:07;;;;;;;;;;;14.30;99.90;;;13.63;100.00;101115.25;4130978;28;20025;-79
2023/06/07 01:31:09;;;;;;;16.33;12.32;;;14.20;99.90;;;13.66;100.00;101128.16;4103870;28;19910;-79
2023/06/07 01:33:12;;;;;;;20.63;12.40;;;14.20;99.90;;;13.54;100.00;101111.78;4103823;28;20122;-79
2023/06/07 01:35:13;;;;;;;21.95;12.38;;;14.20;99.90;;;13.53;100.00;101115.41;4123369;28;20042;-79
2023/06/07 01:37:14;;;;;;;19.40;11.98;;;14.10;99.90;;;13.65;100.00;101135.28;4135902;28;20030;-79
2023/06/07 01:39:19;;;;;;;18.50;12.80;;;14.20;99.90;;;13.64;100.00;101130.16;4137115;28;20030;-79
2023/06/07 01:41:21;;;;;;;19.60;12.63;;;14.10;99.90;;;13.53;100.00;101112.75;4135690;28;20532;-79
2023/06/07 01:43:23;;;;;;;22.60;14.18;;;14.10;99.90;;;13.41;100.00;101086.78;4135839;28;20053;-79
2023/06/07 01:45:24;;;;;;;21.70;12.93;;;14.10;99.90;;;13.54;100.00;101116.25;4137122;28;20022;-80
2023/06/07 01:47:25;;;;;;;22.08;11.73;;;14.10;99.90;;;13.43;100.00;101098.03;4119612;28;20034;-79
2023/06/07 01:49:26;;;;;;;19.98;12.60;;;14.10;99.90;;;13.40;100.00;101103.66;4135306;28;20046;-79
2023/06/07 01:51:26;;;;;;;18.83;11.68;;;14.00;99.90;;;13.41;100.00;101105.34;4137008;28;20398;-79
2023/06/07 01:53:29;;;;;;;23.30;12.07;;;14.00;99.90;;;13.37;100.00;101102.19;4135934;28;20054;-79
2023/06/07 01:55:30;;;;;;;23.83;13.05;;;14.00;99.90;;;13.35;100.00;101101.50;4135656;28;20114;-80
2023/06/07 01:57:51;;;;;;;20.65;13.50;;;14.00;99.90;;;13.40;100.00;101115.09;4136679;28;20030;-79
2023/06/07 02:00:14;;;;;;;31.35;14.35;;;14.00;99.90;;;13.45;100.00;101122.53;4141473;28;20038;-79
2023/06/07 02:02:40;;;;;;;19.50;12.27;;;14.00;99.90;;;13.44;100.00;101131.50;4151958;28;20030;-79
2023/06/07 02:04:48;;;;;;;30.63;14.57;;;13.90;99.90;;;13.22;100.00;101094.06;4119654;28;20031;-79
2023/06/07 02:06:52;;;;;;;21.98;13.77;;;13.90;99.90;;;13.34;100.00;101109.63;4120634;28;20027;-79
2023/06/07 02:08:56;;;;;;;21.67;13.93;;;13.90;99.90;;;13.32;100.00;101108.97;4119319;28;20030;-79
2023/06/07 02:10:58;;;;;;;21.92;13.48;;;14.00;99.90;;;13.35;100.00;101117.38;4119670;28;20110;-79
2023/06/07 02:13:00;;;;;;;20.67;12.70;;;13.90;99.90;;;13.45;100.00;101125.19;4119375;28;20089;-79
2023/06/07 02:15:01;;;;;;;21.60;13.35;;;14.00;99.90;;;13.40;100.00;101095.72;4119220;28;20633;-80
2023/06/07 02:17:09;;;;;;;22.00;13.38;;;14.00;99.90;;;13.45;100.00;101106.63;4119197;28;20062;-80
2023/06/07 02:19:12;;;;;;;19.35;12.90;;;14.00;99.90;;;13.39;100.00;101102.00;4119164;28;20031;-80
2023/06/07 02:21:13;;;;;;;22.88;14.52;;;14.00;99.90;;;13.47;100.00;101109.97;4120596;28;20022;-80
2023/06/07 02:23:14;;;;;;;21.17;13.52;;;14.00;99.90;;;13.40;100.00;101095.72;4121423;28;20061;-80
2023/06/07 02:25:15;;;;;;;22.05;13.93;;;14.00;99.90;;;13.42;100.00;101102.50;4120271;28;20094;-79
2023/06/07 02:27:16;;;;;;;20.27;13.73;;;14.00;99.90;;;13.40;100.00;101103.66;4120456;28;20031;-80
2023/06/07 02:29:17;;;;;;;22.60;14.27;;;14.00;99.90;;;13.45;100.00;101117.25;4118544;28;20050;-80
2023/06/07 02:31:20;;;;;;;18.80;13.00;;;14.00;99.90;;;13.41;100.00;101110.63;4123005;28;20031;-79
2023/06/07 02:33:24;;;;;;;19.63;13.07;;;14.00;99.90;;;13.25;100.00;101084.94;4119869;28;20027;-79
2023/06/07 02:35:25;;;;;;;18.52;13.40;;;13.90;99.90;;;13.40;100.00;101108.97;4119022;28;20022;-80
2023/06/07 02:37:26;;;;;;;22.77;14.27;;;13.90;99.90;;;13.38;100.00;101103.00;4151317;28;20121;-79
2023/06/07 02:39:28;;;;;;;22.02;13.32;;;13.90;99.90;;;13.35;100.00;101106.00;4135370;28;20019;-79
2023/06/07 02:41:29;;;;;;;24.58;13.30;;;13.90;99.90;;;13.34;100.00;101097.22;4151287;28;20029;-79
2023/06/07 02:43:30;;;;;;;21.77;12.57;;;13.90;99.90;;;13.22;100.00;101091.41;4136469;28;20026;-79
2023/06/07 02:45:31;;;;;;;22.33;13.60;;;13.90;99.90;;;13.36;100.00;101108.47;4134990;28;20026;-79
2023/06/07 02:47:31;;;;;;;18.05;12.35;;;13.90;99.90;;;13.17;100.00;101072.50;4134867;28;20065;-79
2023/06/07 02:49:32;;;;;;;21.15;13.23;;;13.80;99.90;;;13.30;100.00;101099.34;4135985;28;20502;-79
2023/06/07 02:51:33;;;;;;;23.58;13.35;;;13.80;99.90;;;13.25;100.00;101101.69;4135009;28;20026;-79
2023/06/07 02:53:34;;;;;;;29.48;14.60;;;13.80;99.90;;;13.09;100.00;101079.63;4119226;28;20117;-79
2023/06/07 02:55:35;;;;;;;25.10;14.25;;;13.80;99.90;;;13.12;100.00;101090.72;4134926;28;20034;-80
2023/06/07 02:57:36;;;;;;;22.70;12.82;;;13.80;99.90;;;13.22;100.00;101103.81;4134586;28;20027;-80
2023/06/07 02:59:39;;;;;;;24.27;14.90;;;13.80;99.90;;;13.20;100.00;101103.97;4136082;28;20552;-79
2023/06/07 03:01:40;;;;;;;24.05;13.80;;;13.70;99.90;;;13.09;100.00;101084.91;4136110;28;20030;-79
2023/06/07 03:04:58;;;;;;;;;;;;;;;;;;;;;
2023/06/07 03:07:24;;;;;;;;;;;;;;;;;;;;;
2023/06/07 03:09:43;;;;;;;;;;;;;;;;;;;;;
2023/06/07 03:15:21;;;;;;;;;;;;;;;;;;;;;
2023/06/07 03:20:07;;;;;;;26.55;14.65;;;13.50;99.90;;;12.84;100.00;101073.47;4135089;28;20072;-79
2023/06/07 03:22:46;;;;;;;22.67;12.98;;;13.50;99.90;;;12.68;100.00;101046.94;4132473;28;20113;-79
2023/06/07 03:25:35;;;;;;;17.13;12.50;;;13.50;99.90;;;12.77;100.00;101075.09;4112501;28;20098;-79
2023/06/07 03:28:05;;;;;;;26.10;14.63;;;13.40;99.90;;;12.67;100.00;101055.84;4101869;29;20139;-80
2023/06/07 03:30:36;;;;;;;21.95;14.10;;;13.50;99.90;;;12.62;100.00;101055.53;4117924;28;20093;-79
2023/06/07 03:32:48;;;;;;;21.15;13.85;;;13.50;99.90;;;12.63;100.00;101051.91;4101066;28;20119;-80
2023/06/07 03:35:51;;;;;;;;;;;;;;;;;;;;;
2023/06/07 03:38:10;;;;;;;;;;;;;;;;;;;;;
2023/06/07 03:40:17;;;;;;;24.83;14.68;;;13.40;99.90;;;12.63;100.00;101063.28;4104447;28;20539;-79
2023/06/07 03:43:35;;;;;;;;;;;;;;;;;;;;;
2023/06/07 03:46:27;;;;;;;;;;;;;;;;;;;;;
2023/06/07 03:48:39;;;;;;;;;;;;;;;;;;;;;
2023/06/07 03:50:50;;;;;;;22.42;14.82;;;13.30;99.90;;;12.60;100.00;101062.81;4142399;28;20064;-79
2023/06/07 03:55:56;;;;;;;;;;;;;;;;;;;;;
2023/06/07 03:58:19;;;;;;;;;;;;;;;;;;;;;
2023/06/07 04:00:34;;;;;;;21.58;13.10;;;13.30;99.90;;;12.53;100.00;101056.50;4138639;28;20037;-79
2023/06/07 04:02:50;;;;;;;24.73;13.90;;;13.30;99.90;;;12.69;100.00;101083.00;4122300;28;20050;-79
2023/06/07 04:05:05;;;;;;;19.50;13.73;;;13.30;99.90;;;12.66;100.00;101067.44;4143201;28;20091;-79
2023/06/07 04:07:17;;;;;;;22.80;15.75;;;13.30;99.90;;;12.56;100.00;101058.81;4153156;28;20025;-79
2023/06/07 04:09:38;;;;;;;26.60;15.05;;;13.30;99.90;;;12.57;100.00;101061.28;4138580;28;20034;-79
2023/06/07 04:12:21;;;;;;;;;;;;;;;;;;;;;
2023/06/07 04:14:32;;;;;;;20.63;14.05;;;13.30;99.90;;;12.49;100.00;101047.19;4149804;28;20490;-79
2023/06/07 04:17:06;;;;;;;20.85;14.15;;;13.30;99.90;;;12.67;100.00;101080.50;4121268;28;20137;-79
2023/06/07 04:19:28;;;;;;;25.08;13.57;;;13.30;99.90;;;12.46;100.00;101056.28;4138056;28;20089;-79
2023/06/07 04:22:07;;;;;;;;;;;;;;;;;;;;;
2023/06/07 04:24:43;;;;;;;23.77;14.75;;;13.30;99.90;;;12.54;100.00;101064.28;4138579;28;20026;-79
2023/06/07 04:27:30;;;;;;;;;;;;;;;;;;;;;
2023/06/07 04:29:52;;;;;;;23.63;14.15;;;13.30;99.90;;;12.53;100.00;101065.25;4130304;28;20397;-79
2023/06/07 04:32:20;;;;;;;22.40;13.05;;;13.30;99.90;;;12.50;100.00;101059.44;4138002;28;20065;-79
2023/06/07 04:35:05;;;;;;;22.92;14.23;;;13.30;99.90;;;12.62;100.00;101071.41;4137104;28;20049;-79
2023/06/07 04:37:31;;;;;;;21.42;12.43;;;13.30;99.90;;;12.51;100.00;101047.88;4123673;28;20481;-79
2023/06/07 04:39:54;;;;;;;20.52;12.52;;;13.30;99.90;;;12.60;100.00;101062.81;4136693;28;20093;-79
2023/06/07 04:42:11;;;;;;;23.90;14.00;;;13.30;99.90;;;12.59;100.00;101055.84;4138044;28;20085;-79
2023/06/07 04:44:42;;;;;;;;;;;;;;;;;;;;;
2023/06/07 04:46:59;;;;;;;22.90;12.73;;;13.40;99.90;;;12.70;100.00;101079.34;4133441;28;20027;-79
2023/06/07 04:49:34;;;;;;;20.67;13.77;;;13.40;99.90;;;12.77;100.00;101080.38;4120363;28;20035;-79
2023/06/07 04:52:01;;;;;;;21.65;13.43;;;13.40;99.90;;;12.78;100.00;101077.56;4108267;28;20113;-79
2023/06/07 04:54:32;;;;;;;;;;;;;;;;;;;;;
2023/06/07 04:56:46;;;;;;;21.45;13.10;;;13.50;99.90;;;12.80;100.00;101065.97;4121875;28;20033;-79
2023/06/07 04:59:25;;;;;;;26.33;13.55;;;13.50;99.90;;;12.74;100.00;101046.28;4136296;28;20026;-79
2023/06/07 05:01:33;;;;;;;27.13;14.75;;;13.50;99.90;;;12.82;100.00;101059.53;4124185;28;20022;-78
2023/06/07 05:03:55;;;;;;;23.02;13.68;;;13.50;99.90;;;12.85;100.00;101055.72;4152568;28;20018;-78
2023/06/07 05:06:17;;;;;;;24.83;14.57;;;13.60;99.90;;;12.86;100.00;101060.03;4136902;28;20062;-79
2023/06/07 05:08:48;;;;;;;17.83;12.90;;;13.60;99.90;;;12.92;100.00;101054.94;4121708;28;20462;-80
2023/06/07 05:10:55;;;;;;;22.15;13.25;;;13.60;99.90;;;12.95;100.00;101067.84;4136116;28;20062;-79
2023/06/07 05:13:24;;;;;;;28.60;13.30;;;13.60;99.90;;;13.15;100.00;101090.41;4136611;28;20033;-79
2023/06/07 05:15:39;;;;;;;18.02;12.52;;;13.70;99.90;;;13.11;100.00;101077.66;4135926;28;20074;-79
2023/06/07 05:17:58;;;;;;;;;;;;;;;;;;;;;
2023/06/07 05:20:34;;;;;;;;;;;;;;;;;;;;;
2023/06/07 05:23:05;;;;;;;17.75;12.63;;;13.90;99.90;;;13.34;100.00;101061.94;4136369;28;20039;-79
2023/06/07 05:25:31;;;;;;;22.38;12.82;;;14.00;99.90;;;13.45;100.00;101069.53;4129327;28;20101;-79
2023/06/07 05:27:53;;;;;;;;;;;;;;;;;;;;;
2023/06/07 05:30:10;;;;;;;22.58;13.30;;;14.20;99.90;;;13.62;100.00;101060.59;4150341;28;20493;-79
2023/06/07 05:32:51;;;;;;;25.55;14.30;;;14.30;99.90;;;13.82;100.00;101069.84;4120695;28;20488;-79
2023/06/07 05:35:17;;;;;;;;;;;;;;;;;;;;;
2023/06/07 05:37:54;;;;;;;;;;;;;;;;;;;;;
2023/06/07 05:39:55;;;;;;;20.13;12.00;;;14.70;99.90;;;14.34;100.00;101083.44;4114244;28;20034;-79
2023/06/07 05:41:56;;;;;;;18.17;10.35;;;14.80;99.90;;;14.36;100.00;101077.00;4121043;28;20026;-79
2023/06/07 05:43:57;;;;;;;20.10;12.15;;;14.90;99.90;;;14.65;100.00;101092.28;4130364;28;20037;-79
2023/06/07 05:45:58;;;;;;;24.05;12.65;;;15.00;99.90;;;14.78;100.00;101102.34;4135817;28;20015;-80
2023/06/07 05:47:58;;;;;;;21.48;12.48;;;15.20;99.90;;;14.65;100.00;101076.34;4121339;28;20093;-80
2023/06/07 05:49:59;;;;;;;16.35;11.45;;;15.30;99.90;;;14.71;100.00;101074.81;4123898;28;20029;-80
2023/06/07 05:52:00;;;;;;;18.30;12.57;;;15.40;99.90;;;14.77;100.00;101084.75;4119687;28;20588;-81
2023/06/07 05:54:02;;;;;;;18.80;11.40;;;15.40;99.90;;;14.84;100.00;101091.03;4120778;28;20458;-81
2023/06/07 05:56:03;;;;;;;16.98;10.23;;;15.40;99.90;;;14.79;100.00;101080.09;4122999;28;20026;-80
2023/06/07 05:58:04;;;;;;;17.15;11.10;;;15.40;99.90;;;14.82;100.00;101079.72;4119586;28;20027;-81
2023/06/07 06:00:10;;;;;;;16.20;10.40;;;15.40;99.90;;;14.80;100.00;101084.41;4120843;28;20030;-81
2023/06/07 06:02:11;;;;;;;21.85;10.85;;;15.40;99.90;;;14.77;100.00;101063.50;4120639;28;20022;-82
2023/06/07 06:04:12;;;;;;;24.05;11.70;;;15.40;99.90;;;14.89;100.00;101067.41;4116770;28;20061;-82
2023/06/07 06:06:17;;;;;;;19.73;10.50;;;15.40;99.90;;;14.99;100.00;101081.31;4140952;28;20026;-83
2023/06/07 06:08:18;;;;;;;20.42;11.00;;;15.40;99.90;;;15.00;100.00;101092.72;4151694;28;20030;-82
2023/06/07 06:10:19;;;;;;;18.10;10.93;;;15.50;99.90;;;14.88;100.00;101076.38;4136668;28;20575;-82
2023/06/07 06:12:20;;;;;;;17.83;11.00;;;15.50;99.90;;;15.07;100.00;101097.19;4135423;28;20030;-82
2023/06/07 06:14:24;;;;;;;22.55;12.05;;;15.50;99.90;;;14.85;100.00;101056.31;4151652;28;20030;-82
2023/06/07 06:16:25;;;;;;;16.98;10.98;;;15.50;99.90;;;14.86;100.00;101057.16;4136398;28;20051;-83
2023/06/07 06:18:26;;;;;;;21.23;10.52;;;15.60;99.90;;;14.96;100.00;101068.38;4123708;28;20034;-82
2023/06/07 06:20:27;;;;;;;16.10;11.13;;;15.60;99.90;;;15.11;100.00;101087.03;4135253;28;20534;-81
2023/06/07 06:22:28;;;;;;;21.27;11.52;;;15.60;99.90;;;15.12;100.00;101089.50;4122326;28;20019;-81
2023/06/07 06:24:29;;;;;;;18.60;10.32;;;15.60;99.90;;;15.13;100.00;101075.22;4119505;28;20027;-81
2023/06/07 06:26:30;;;;;;;15.30;10.32;;;15.70;99.90;;;15.14;100.00;101076.06;4126529;28;20542;-84
2023/06/07 06:28:31;;;;;;;12.75;9.35;;;15.70;99.90;;;15.35;100.00;101090.31;4135294;28;20490;-80
2023/06/07 06:30:32;;;;;;;18.15;10.15;;;15.80;99.90;;;15.28;100.00;101062.81;4136495;28;20057;-81
2023/06/07 06:32:33;;;;;;;15.90;10.50;;;15.80;99.90;;;15.26;100.00;101046.19;4136196;28;20390;-81
2023/06/07 06:34:34;;;;;;;19.88;9.90;;;15.90;99.90;;;15.45;100.00;101059.00;4136557;28;20034;-81
2023/06/07 06:36:36;;;;;;;18.50;10.30;;;16.00;99.90;;;15.44;100.00;101051.22;4135405;28;20035;-81
2023/06/07 06:38:37;;;;;;;15.52;9.82;;;16.00;99.90;;;15.65;100.00;101069.97;4125881;28;20077;-81
2023/06/07 06:40:38;;;;;;;15.88;9.82;;;16.10;99.90;;;15.74;100.00;101076.88;4120197;28;20030;-80
2023/06/07 06:42:39;;;;;;;15.90;10.65;;;16.20;99.90;;;15.81;100.00;101083.13;4120123;28;20097;-80
2023/06/07 06:44:42;;;;;;;28.05;11.70;;;16.20;99.90;;;15.85;100.00;101080.94;4118861;28;20450;-81
2023/06/07 06:46:43;;;;;;;16.20;9.10;;;16.30;99.90;;;15.89;100.00;101075.06;4123683;28;20034;-79
2023/06/07 06:48:44;;;;;;;12.98;8.50;;;16.40;99.90;;;16.00;100.00;101084.44;4134625;28;20270;-79
2023/06/07 06:50:46;;;;;;;14.63;9.80;;;16.40;99.90;;;15.90;100.00;101054.59;4118906;28;20398;-79
2023/06/07 06:52:47;;;;;;;19.27;9.77;;;16.50;99.90;;;16.09;100.00;101072.69;4118640;28;20062;-79
2023/06/07 06:54:48;;;;;;;13.45;8.38;;;16.60;99.90;;;16.26;100.00;101082.13;4118983;28;20031;-79
2023/06/07 06:56:49;;;;;;;15.02;9.13;;;16.70;99.90;;;16.35;100.00;101077.53;4137417;28;20082;-79
2023/06/07 06:58:50;;;;;;;16.75;9.80;;;16.80;99.90;;;16.46;100.00;101077.88;4119949;28;20039;-79
2023/06/07 07:00:51;;;;;;;19.27;10.20;;;16.90;99.90;;;16.47;100.00;101060.91;4119908;28;20026;-79
2023/06/07 07:02:52;;;;;;;12.90;9.27;;;16.90;99.90;;;16.51;100.00;101062.19;4122561;28;20033;-79
2023/06/07 07:04:55;;;;;;;15.13;9.55;;;17.10;99.90;;;16.56;100.00;101065.16;4126859;28;20027;-80
2023/06/07 07:06:56;;;;;;;16.25;8.95;;;17.10;99.90;;;16.66;100.00;101067.53;4135497;28;20057;-80
2023/06/07 07:08:57;;;;;;;11.80;7.75;;;17.20;99.90;;;16.82;100.00;101085.94;4134335;28;20030;-80
2023/06/07 07:10:58;;;;;;;12.27;7.35;;;17.20;99.90;;;16.89;100.00;101086.00;4119983;28;20479;-80
2023/06/07 07:12:58;;;;;;;15.90;8.00;;;17.30;99.90;;;16.83;100.00;101060.94;4120333;28;20034;-80
2023/06/07 07:14:59;;;;;;;16.02;8.85;;;17.40;99.90;;;17.08;100.00;101088.06;4118712;28;20122;-80
2023/06/07 07:17:00;;;;;;;16.83;9.63;;;17.40;99.90;;;17.11;100.00;101074.34;4133756;28;20054;-80
2023/06/07 07:19:02;;;;;;;13.38;7.57;;;17.60;99.90;;;17.29;100.00;101088.06;4137742;28;20035;-80
2023/06/07 07:21:03;;;;;;;14.38;7.15;;;17.70;99.90;;;17.20;100.00;101059.06;4139568;28;20026;-80
2023/06/07 07:23:04;;;;;;;12.00;8.50;;;17.80;99.90;;;17.31;100.00;101059.38;4129762;28;20026;-80
2023/06/07 07:25:06;;;;;;;13.15;7.22;;;17.90;99.90;;;17.34;100.00;101063.47;4123319;28;20031;-79
2023/06/07 07:27:07;;;;;;;9.88;7.00;;;17.90;99.90;;;17.58;100.00;101081.78;4131258;28;20482;-79
2023/06/07 07:29:08;;;;;;;15.40;6.85;;;18.00;99.90;;;17.56;100.00;101070.47;4123343;28;20054;-80
2023/06/07 07:31:09;;;;;;;12.80;7.38;;;18.10;99.90;;;17.47;100.00;101052.94;4137823;28;20030;-80
2023/06/07 07:33:10;;;;;;;11.95;6.65;;;18.20;99.90;;;17.59;100.00;101054.88;4122831;28;20077;-79
2023/06/07 07:35:11;;;;;;;11.88;7.30;;;18.20;99.90;;;17.82;100.00;101078.66;4121519;28;20030;-81
2023/06/07 07:37:12;;;;;;;10.90;7.80;;;18.30;99.90;;;17.92;100.00;101081.81;4128824;28;20030;-80
2023/06/07 07:39:17;;;;;;;11.10;6.65;;;18.40;99.90;;;17.90;100.00;101053.66;4121609;28;20095;-80
2023/06/07 07:41:18;;;;;;;12.68;7.00;;;18.50;99.90;;;18.04;100.00;101055.41;4121370;28;20034;-81
2023/06/07 07:43:19;;;;;;;11.73;7.65;;;18.60;99.90;;;18.02;100.00;101057.44;4122551;28;20034;-82
2023/06/07 07:45:20;;;;;;;12.35;6.68;;;18.60;99.90;;;18.16;100.00;101057.31;4126921;28;20106;-88
2023/06/07 07:47:21;;;;;;;10.85;7.47;;;18.70;99.90;;;18.35;100.00;101079.78;4133834;28;20023;-92
2023/06/07 07:49:22;;;;;;;11.20;7.03;;;18.80;99.90;;;18.32;100.00;101064.16;4120847;28;20038;-91
2023/06/07 07:51:23;;;;;;;14.45;5.95;;;18.90;99.90;;;18.53;100.00;101077.44;4136149;28;20090;-86
2023/06/07 07:53:24;;;;;;;9.25;6.90;;;19.00;99.90;;;18.65;100.00;101067.84;4122211;28;20086;-88
2023/06/07 07:55:25;;;;;;;11.30;7.07;;;19.10;99.90;;;18.62;100.00;101057.53;4149253;28;20025;-87
2023/06/07 07:57:26;;;;;;;11.27;7.22;;;19.20;99.90;;;18.71;100.00;101048.31;4138329;28;20042;-92
2023/06/07 07:59:27;;;;;;;13.00;7.13;;;19.30;99.90;;;18.87;100.00;101065.03;4108037;28;20031;-88
2023/06/07 08:01:28;;;;;;;10.45;7.13;;;19.40;99.90;;;18.91;100.00;101058.22;4120760;28;20079;-86
2023/06/07 08:03:29;;;;;;;9.82;5.85;;;19.50;99.90;;;19.16;100.00;101078.03;4130587;28;20494;-84
2023/06/07 08:05:30;;;;;;;10.10;7.20;;;19.50;99.90;;;19.14;100.00;101053.34;4136694;28;20513;-84
2023/06/07 08:07:31;;;;;;;16.23;7.00;;;19.70;99.90;;;19.22;98.43;101056.63;4150742;28;20022;-87
2023/06/07 08:09:32;;;;;;;11.52;6.70;;;19.80;99.90;;;19.37;97.61;101061.78;4120788;28;20082;-86
2023/06/07 08:11:33;;;;;;;13.07;6.38;;;19.90;99.90;;;19.56;96.14;101065.53;4120396;28;20085;-87
2023/06/07 08:13:34;;;;;;;13.57;7.38;;;20.00;99.90;;;19.59;94.92;101049.84;4136774;28;20030;-86
2023/06/07 08:15:35;;;;;;;11.77;6.32;;;20.10;99.90;;;19.83;95.56;101059.91;4104050;28;20129;-86
2023/06/07 08:17:36;;;;;;;11.02;6.63;;;20.20;99.90;;;19.89;93.24;101051.06;4132929;28;20547;-87
2023/06/07 08:19:37;;;;;;;12.57;6.22;;;20.30;99.90;;;20.00;92.06;101048.78;4120573;28;20023;-85
2023/06/07 08:21:38;;;;;;;13.20;6.60;;;20.40;99.90;;;20.21;88.71;101061.91;4120529;28;20030;-86
2023/06/07 08:23:40;;;;;;;12.25;6.43;;;20.60;99.90;;;20.32;87.86;101063.94;4152543;28;20026;-85
2023/06/07 08:25:41;;;;;;;11.10;5.50;;;20.70;99.90;;;20.52;87.73;101072.72;4153420;28;20068;-87
2023/06/07 08:27:42;;;;;;;10.82;4.78;;;20.80;99.90;;;20.67;89.31;101069.81;4134832;28;20054;-89
2023/06/07 08:29:43;;;;;;;10.63;6.43;;;20.90;99.90;;;20.88;87.94;101078.31;4136815;28;20030;-88
2023/06/07 08:31:44;;;;;;;11.82;5.43;;;21.10;99.90;;;20.92;86.64;101068.81;4123311;28;20082;-87
2023/06/07 08:33:45;;;;;;;11.05;6.78;;;21.20;99.90;;;20.96;84.61;101066.53;4120231;28;20031;-88
2023/06/07 08:35:46;;;;;;;9.07;4.82;;;21.30;99.90;;;21.05;84.59;101051.84;4104216;28;20023;-86
2023/06/07 08:37:47;;;;;;;7.55;5.60;;;21.40;99.90;;;21.22;84.62;101066.38;4135962;28;20018;-83
2023/06/07 08:39:47;;;;;;;9.55;5.65;;;21.50;99.90;;;21.38;83.01;101070.41;4136061;28;20029;-79
2023/06/07 08:41:49;;;;;;;11.73;5.95;;;21.60;99.90;;;21.39;80.76;101069.34;4136664;28;20033;-79
2023/06/07 08:43:50;;;;;;;10.98;5.28;;;21.70;99.90;;;21.46;81.63;101065.56;4130356;28;20030;-80
2023/06/07 08:45:51;;;;;;;11.13;5.70;;;21.70;99.90;;;21.57;81.63;101063.19;4125429;28;20504;-80
2023/06/07 08:47:53;;;;;;;13.82;5.68;;;21.80;99.90;;;21.69;81.52;101064.94;4136223;28;20592;-79
2023/06/07 08:49:57;;;;;;;8.27;4.60;;;21.90;99.90;;;21.86;80.89;101060.66;4136159;28;20030;-80
2023/06/07 08:52:00;;;;;;;10.88;5.78;;;22.10;99.90;;;21.94;80.10;101060.41;4136398;28;20106;-79
2023/06/07 08:54:03;;;;;;;12.57;5.67;;;22.20;99.90;;;22.10;80.65;101042.88;4136637;28;20030;-79
2023/06/07 08:56:05;;;;;;;11.10;5.43;;;22.30;99.90;;;22.14;80.95;101043.22;4136369;28;20277;-79
2023/06/07 08:58:07;;;;;;;9.57;5.22;;;22.40;99.90;;;22.26;80.83;101049.50;4122568;28;20054;-79
2023/06/07 09:00:10;;;;;;;8.90;4.95;;;22.40;99.90;;;22.24;80.43;101039.00;4132750;28;20041;-79
2023/06/07 09:02:13;;;;;;;10.07;5.55;;;22.50;99.90;;;22.32;78.98;101037.84;4135645;28;20453;-79
2023/06/07 09:04:17;;;;;;;12.70;5.47;;;22.60;99.90;;;22.28;76.37;101031.31;4135405;28;20051;-79
2023/06/07 09:06:21;;;;;;;8.90;4.63;;;22.60;99.90;;;22.35;76.73;101048.16;4123021;28;20093;-79
2023/06/07 09:08:22;;;;;;;10.38;5.30;;;22.60;99.90;;;22.44;75.69;101039.56;4128283;28;20054;-79
2023/06/07 09:10:22;;;;;;;10.95;5.00;;;22.70;99.90;;;22.67;75.11;101051.50;4120239;28;20121;-79
2023/06/07 09:12:23;;;;;;;10.00;5.60;;;22.80;99.90;;;22.79;75.90;101044.31;4121523;28;20038;-79
2023/06/07 09:14:28;;;;;;;10.40;4.90;;;23.00;99.90;;;22.91;74.34;101045.97;4120348;28;20031;-79